createdAt,value
2023-03-03T00:01:03.849Z,2.39
2023-03-03T00:03:31.731Z,2.35
2023-03-03T00:06:00.556Z,2.32
2023-03-03T00:08:32.393Z,2.27
2023-03-03T00:11:00.873Z,2.53
2023-03-03T00:13:29.154Z,2.45
2023-03-03T00:16:12.332Z,2.54
2023-03-03T00:18:44.193Z,2.53
2023-03-03T00:21:34.134Z,2.45
2023-03-03T00:24:22.753Z,2.59
2023-03-03T00:26:51.773Z,2.72
2023-03-03T00:29:35.799Z,2.72
2023-03-03T00:32:25.932Z,2.36
2023-03-03T00:34:55.171Z,2.59
2023-03-03T00:37:34.510Z,2.44
2023-03-03T00:40:21.902Z,2.38
2023-03-03T00:42:53.065Z,2.32
2023-03-03T00:45:32.941Z,2.21
2023-03-03T00:48:11.406Z,2.28
2023-03-03T00:50:43.368Z,2.51
2023-03-03T00:53:14.811Z,2.60
2023-03-03T00:55:45.149Z,2.57
2023-03-03T00:58:13.969Z,2.71
2023-03-03T01:00:45.879Z,2.60
2023-03-03T01:03:18.646Z,2.75
2023-03-03T01:05:46.552Z,2.34
2023-03-03T01:08:14.785Z,2.46
2023-03-03T01:10:50.978Z,2.30
2023-03-03T01:13:20.186Z,2.41
2023-03-03T01:15:48.168Z,2.28
2023-03-03T01:18:16.333Z,2.37
2023-03-03T01:20:44.124Z,2.52
2023-03-03T01:23:13.243Z,2.43
2023-03-03T01:25:41.337Z,2.33
2023-03-03T01:28:10.992Z,2.29
2023-03-03T01:30:39.165Z,2.32
2023-03-03T01:33:07.159Z,2.39
2023-03-03T01:35:36.563Z,2.60
2023-03-03T01:38:04.779Z,2.85
2023-03-03T01:40:33.282Z,2.51
2023-03-03T01:43:01.821Z,2.40
2023-03-03T01:45:32.525Z,2.36
2023-03-03T01:48:04.335Z,2.20
2023-03-03T01:50:38.187Z,2.34
2023-03-03T01:53:12.069Z,2.46
2023-03-03T01:55:42.269Z,2.37
2023-03-03T01:58:13.409Z,2.52
2023-03-03T02:00:46.806Z,2.61
2023-03-03T02:03:14.578Z,2.33
2023-03-03T02:05:44.118Z,2.41
2023-03-03T02:08:17.069Z,2.28
2023-03-03T02:10:47.262Z,2.32
2023-03-03T02:13:15.479Z,2.39
2023-03-03T02:15:45.007Z,2.29
2023-03-03T02:18:15.464Z,2.32
2023-03-03T02:20:53.442Z,2.18
2023-03-03T02:23:27.325Z,2.36
2023-03-03T02:26:07.226Z,2.22
2023-03-03T02:28:36.846Z,2.32
2023-03-03T02:31:13.061Z,2.44
2023-03-03T02:33:42.797Z,2.32
2023-03-03T02:36:13.839Z,2.39
2023-03-03T02:38:47.202Z,2.52
2023-03-03T02:41:21.869Z,2.28
2023-03-03T02:43:55.634Z,2.27
2023-03-03T02:46:23.487Z,2.24
2023-03-03T02:48:51.398Z,2.27
2023-03-03T02:51:19.378Z,2.21
2023-03-03T02:53:47.591Z,2.13
2023-03-03T02:56:16.952Z,2.18
2023-03-03T02:58:44.743Z,1.96
2023-03-03T03:01:13.320Z,2.09
2023-03-03T03:03:41.976Z,2.35
2023-03-03T03:06:10.172Z,2.03
2023-03-03T03:08:38.539Z,2.13
2023-03-03T03:11:07.036Z,2.30
2023-03-03T03:13:36.406Z,2.19
2023-03-03T03:16:05.018Z,2.15
2023-03-03T03:18:32.935Z,2.17
2023-03-03T03:21:07.841Z,2.11
2023-03-03T03:23:36.356Z,1.93
2023-03-03T03:26:04.751Z,2.01
2023-03-03T03:28:33.300Z,2.10
2023-03-03T03:31:03.120Z,2.03
2023-03-03T03:33:31.458Z,2.21
2023-03-03T03:36:01.028Z,2.03
2023-03-03T03:38:31.657Z,1.98
2023-03-03T03:41:00.428Z,2.01
2023-03-03T03:43:28.540Z,1.95
2023-03-03T03:45:56.694Z,2.07
2023-03-03T03:48:26.933Z,1.85
2023-03-03T03:50:55.023Z,2.01
2023-03-03T03:53:25.366Z,1.94
2023-03-03T03:55:53.758Z,1.97
2023-03-03T03:58:22.048Z,1.94
2023-03-03T04:00:56.100Z,1.95
2023-03-03T04:03:24.370Z,2.13
2023-03-03T04:05:55.309Z,2.11
2023-03-03T04:08:23.926Z,1.94
2023-03-03T04:10:52.034Z,1.97
2023-03-03T04:13:20.448Z,1.91
2023-03-03T04:15:49.024Z,1.91
2023-03-03T04:18:17.367Z,2.10
2023-03-03T04:20:46.996Z,1.87
2023-03-03T04:23:16.718Z,1.78
2023-03-03T04:25:46.832Z,1.73
2023-03-03T04:28:16.299Z,1.77
2023-03-03T04:30:45.081Z,1.58
2023-03-03T04:33:14.619Z,1.61
2023-03-03T04:35:42.936Z,1.54
2023-03-03T04:38:11.104Z,1.67
2023-03-03T04:40:43.351Z,1.57
2023-03-03T04:43:14.896Z,1.69
2023-03-03T04:45:42.960Z,1.61
2023-03-03T04:48:10.906Z,1.78
2023-03-03T04:50:38.906Z,1.63
2023-03-03T04:53:06.899Z,1.56
2023-03-03T04:55:37.528Z,1.67
2023-03-03T04:58:09.407Z,1.66
2023-03-03T05:00:37.862Z,1.71
2023-03-03T05:03:05.672Z,1.68
2023-03-03T05:05:33.447Z,1.65
2023-03-03T05:08:01.262Z,1.68
2023-03-03T05:10:29.650Z,1.69
2023-03-03T05:12:57.446Z,1.78
2023-03-03T05:15:26.845Z,1.71
2023-03-03T05:17:56.411Z,1.82
2023-03-03T05:20:24.331Z,1.75
2023-03-03T05:22:52.564Z,1.58
2023-03-03T05:25:20.566Z,1.75
2023-03-03T05:27:48.483Z,1.83
2023-03-03T05:30:16.619Z,1.63
2023-03-03T05:32:46.853Z,1.76
2023-03-03T05:35:14.585Z,1.70
2023-03-03T05:37:47.085Z,1.54
2023-03-03T05:40:15.668Z,1.62
2023-03-03T05:42:43.462Z,1.62
2023-03-03T05:45:12.283Z,1.56
2023-03-03T05:47:40.344Z,1.58
2023-03-03T05:50:12.223Z,1.87
2023-03-03T05:52:39.949Z,1.83
2023-03-03T05:55:08.749Z,1.73
2023-03-03T05:57:36.878Z,1.91
2023-03-03T06:00:06.737Z,2.02
2023-03-03T06:02:40.008Z,1.70
2023-03-03T06:05:10.455Z,1.95
2023-03-03T06:07:38.921Z,2.12
2023-03-03T06:10:08.216Z,2.14
2023-03-03T06:12:39.084Z,2.13
2023-03-03T06:15:08.357Z,1.88
2023-03-03T06:17:36.188Z,1.93
2023-03-03T06:20:04.384Z,2.06
2023-03-03T06:22:33.873Z,2.01
2023-03-03T06:25:01.775Z,1.90
2023-03-03T06:27:29.590Z,2.01
2023-03-03T06:29:57.461Z,1.92
2023-03-03T06:32:25.454Z,1.99
2023-03-03T06:34:53.388Z,2.03
2023-03-03T06:37:21.503Z,2.04
2023-03-03T06:39:52.631Z,2.18
2023-03-03T06:42:21.077Z,1.93
2023-03-03T06:44:48.809Z,1.97
2023-03-03T06:47:16.829Z,1.97
2023-03-03T06:49:44.942Z,2.09
2023-03-03T06:52:14.702Z,1.92
2023-03-03T06:54:42.963Z,1.92
2023-03-03T06:57:18.960Z,2.07
2023-03-03T06:59:50.244Z,2.01
2023-03-03T07:02:20.331Z,2.09
2023-03-03T07:04:48.197Z,2.08
2023-03-03T07:07:20.455Z,2.15
2023-03-03T07:09:50.172Z,1.88
2023-03-03T07:12:22.320Z,2.09
2023-03-03T07:14:55.845Z,2.01
2023-03-03T07:17:26.462Z,2.30
2023-03-03T07:19:55.000Z,2.22
2023-03-03T07:22:25.704Z,2.22
2023-03-03T07:24:55.832Z,2.43
2023-03-03T07:27:27.549Z,2.22
2023-03-03T07:30:00.188Z,2.40
2023-03-03T07:32:29.651Z,2.21
2023-03-03T07:34:58.098Z,2.37
2023-03-03T07:37:32.855Z,2.07
2023-03-03T07:40:01.754Z,1.93
2023-03-03T07:42:40.051Z,1.83
2023-03-03T07:45:28.971Z,2.02
2023-03-03T07:48:06.871Z,1.93
2023-03-03T07:50:35.727Z,2.09
2023-03-03T07:53:06.770Z,2.33
2023-03-03T07:55:36.617Z,2.28
2023-03-03T07:58:22.188Z,2.24
2023-03-03T08:01:29.278Z,2.22
2023-03-03T08:03:58.163Z,2.14
2023-03-03T08:06:46.906Z,2.22
2023-03-03T08:09:38.982Z,2.33
2023-03-03T08:12:35.450Z,2.37
2023-03-03T08:15:21.364Z,2.61
2023-03-03T08:17:51.058Z,2.51
2023-03-03T08:20:42.453Z,2.51
2023-03-03T08:23:10.497Z,2.14
2023-03-03T08:25:38.373Z,2.52
2023-03-03T08:28:06.544Z,2.46
2023-03-03T08:30:35.777Z,2.15
2023-03-03T08:33:03.964Z,2.26
2023-03-03T08:35:32.052Z,2.14
2023-03-03T08:37:59.978Z,2.28
2023-03-03T08:40:28.003Z,2.15
2023-03-03T08:42:56.105Z,2.12
2023-03-03T08:45:24.014Z,2.21
2023-03-03T08:47:53.348Z,2.29
2023-03-03T08:50:21.758Z,2.51
2023-03-03T08:52:49.668Z,2.45
2023-03-03T08:55:17.878Z,2.61
2023-03-03T08:57:45.999Z,2.46
2023-03-03T09:00:17.576Z,2.45
2023-03-03T09:02:45.948Z,2.35
2023-03-03T09:05:16.055Z,2.13
2023-03-03T09:07:47.623Z,2.10
2023-03-03T09:10:18.573Z,2.33
2023-03-03T09:12:49.653Z,2.15
2023-03-03T09:15:24.780Z,2.08
2023-03-03T09:17:53.826Z,2.44
2023-03-03T09:20:41.943Z,2.38
2023-03-03T09:23:35.754Z,2.38
2023-03-03T09:26:28.491Z,2.38
2023-03-03T09:28:59.482Z,2.40
2023-03-03T09:31:29.188Z,2.49
2023-03-03T09:33:59.245Z,2.57
2023-03-03T09:36:30.360Z,2.43
2023-03-03T09:38:59.246Z,2.67
2023-03-03T09:41:55.218Z,2.90
2023-03-03T09:44:55.940Z,2.97
2023-03-03T09:47:43.213Z,2.90
2023-03-03T09:50:26.456Z,2.64
2023-03-03T09:53:07.682Z,2.54
2023-03-03T09:55:48.514Z,2.66
2023-03-03T09:58:37.466Z,2.88
2023-03-03T10:01:20.877Z,3.15
2023-03-03T10:04:13.120Z,2.64
2023-03-03T10:06:46.611Z,2.74
2023-03-03T10:09:56.263Z,3.05
2023-03-03T10:12:29.434Z,2.83
2023-03-03T10:15:16.697Z,2.98
2023-03-03T10:17:53.270Z,3.10
2023-03-03T10:20:49.597Z,3.29
2023-03-03T10:23:25.685Z,3.31
2023-03-03T10:26:16.513Z,3.35
2023-03-03T10:29:22.134Z,3.19
2023-03-03T10:32:21.107Z,3.27
2023-03-03T10:35:04.669Z,3.41
2023-03-03T10:37:42.058Z,3.39
2023-03-03T10:40:20.814Z,3.49
2023-03-03T10:43:02.938Z,3.40
2023-03-03T10:45:46.926Z,3.56
2023-03-03T10:48:34.814Z,3.72
2023-03-03T10:51:18.701Z,3.78
2023-03-03T10:53:59.115Z,3.52
2023-03-03T10:56:52.185Z,3.70
2023-03-03T10:59:40.289Z,3.99
2023-03-03T11:02:19.217Z,3.90
2023-03-03T11:05:18.083Z,3.88
2023-03-03T11:07:49.872Z,3.73
2023-03-03T11:10:46.797Z,3.76
2023-03-03T11:13:24.952Z,3.50
2023-03-03T11:16:05.764Z,3.63
2023-03-03T11:18:48.810Z,3.48
2023-03-03T11:21:24.191Z,3.66
2023-03-03T11:24:03.550Z,3.53
2023-03-03T11:26:49.940Z,3.53
2023-03-03T11:29:48.345Z,3.75
2023-03-03T11:32:27.273Z,3.53
2023-03-03T11:35:05.653Z,3.36
2023-03-03T11:37:42.083Z,3.77
2023-03-03T11:40:18.538Z,3.74
2023-03-03T11:42:56.261Z,4.03
2023-03-03T11:45:30.773Z,4.11
2023-03-03T11:48:07.382Z,4.09
2023-03-03T11:50:44.610Z,4.06
2023-03-03T11:53:27.778Z,4.13
2023-03-03T11:56:00.943Z,4.33
2023-03-03T11:58:35.661Z,4.21
2023-03-03T12:01:14.225Z,3.98
2023-03-03T12:03:46.372Z,3.99
2023-03-03T12:06:24.531Z,4.11
2023-03-03T12:09:24.904Z,4.09
2023-03-03T12:11:56.111Z,4.27
2023-03-03T12:14:40.906Z,4.22
2023-03-03T12:17:21.091Z,4.38
2023-03-03T12:20:00.574Z,4.31
2023-03-03T12:22:34.703Z,4.38
2023-03-03T12:25:34.727Z,4.10
2023-03-03T12:28:07.517Z,4.50
2023-03-03T12:31:07.995Z,4.40
2023-03-03T12:33:54.064Z,4.27
2023-03-03T12:36:56.117Z,4.61
2023-03-03T12:39:46.712Z,4.41
2023-03-03T12:42:25.925Z,4.78
2023-03-03T12:45:05.132Z,4.69
2023-03-03T12:47:40.674Z,4.72
2023-03-03T12:50:26.331Z,4.77
2023-03-03T12:53:02.896Z,4.86
2023-03-03T12:55:45.797Z,4.34
2023-03-03T12:58:28.293Z,4.63
2023-03-03T13:01:08.498Z,4.14
2023-03-03T13:03:54.921Z,4.62
2023-03-03T13:06:30.011Z,5.21
2023-03-03T13:09:09.695Z,4.74
2023-03-03T13:11:48.834Z,5.07
2023-03-03T13:14:27.843Z,5.03
2023-03-03T13:17:07.425Z,4.99
2023-03-03T13:19:42.066Z,5.29
2023-03-03T13:22:16.900Z,5.33
2023-03-03T13:24:59.866Z,5.29
2023-03-03T13:27:37.241Z,5.67
2023-03-03T13:30:17.270Z,5.63
2023-03-03T13:32:53.031Z,5.64
2023-03-03T13:35:34.928Z,5.91
2023-03-03T13:38:05.970Z,5.79
2023-03-03T13:40:44.257Z,5.47
2023-03-03T13:43:20.484Z,5.52
2023-03-03T13:46:00.097Z,5.21
2023-03-03T13:48:45.136Z,5.48
2023-03-03T13:51:25.047Z,5.33
2023-03-03T13:54:03.357Z,5.42
2023-03-03T13:56:44.763Z,5.69
2023-03-03T13:59:25.121Z,5.56
2023-03-03T14:01:59.865Z,5.26
2023-03-03T14:04:48.191Z,5.52
2023-03-03T14:07:22.889Z,5.39
2023-03-03T14:10:01.879Z,5.48
2023-03-03T14:12:40.216Z,5.43
2023-03-03T14:15:20.757Z,5.62
2023-03-03T14:17:59.861Z,5.70
2023-03-03T14:20:30.939Z,5.20
2023-03-03T14:23:02.983Z,5.45
2023-03-03T14:25:53.597Z,5.43
2023-03-03T14:28:23.405Z,5.82
2023-03-03T14:30:55.601Z,5.64
2023-03-03T14:33:29.689Z,5.74
2023-03-03T14:36:13.370Z,5.76
2023-03-03T14:38:48.125Z,5.78
2023-03-03T14:41:22.536Z,5.95
2023-03-03T14:44:02.173Z,6.14
2023-03-03T14:46:40.312Z,6.26
2023-03-03T14:49:16.301Z,6.06
2023-03-03T14:51:46.813Z,5.94
2023-03-03T14:54:23.659Z,6.05
2023-03-03T14:57:01.442Z,6.20
2023-03-03T14:59:29.705Z,6.06
2023-03-03T15:02:29.683Z,6.05
2023-03-03T15:05:15.491Z,6.17
2023-03-03T15:07:44.160Z,6.43
2023-03-03T15:10:13.666Z,6.25
2023-03-03T15:12:43.646Z,6.24
2023-03-03T15:15:19.998Z,6.15
2023-03-03T15:18:00.191Z,6.49
2023-03-03T15:20:42.226Z,6.46
2023-03-03T15:23:25.097Z,6.41
2023-03-03T15:26:00.505Z,6.19
2023-03-03T15:28:37.726Z,6.42
2023-03-03T15:31:17.987Z,6.40
2023-03-03T15:34:00.210Z,6.38
2023-03-03T15:36:38.376Z,6.46
2023-03-03T15:39:17.336Z,6.21
2023-03-03T15:41:49.156Z,6.29
2023-03-03T15:44:24.557Z,6.36
2023-03-03T15:47:05.248Z,6.59
2023-03-03T15:49:56.468Z,6.68
2023-03-03T15:52:38.420Z,6.55
2023-03-03T15:55:20.548Z,6.51
2023-03-03T15:58:01.382Z,6.52
2023-03-03T16:00:56.650Z,6.46
2023-03-03T16:03:32.147Z,6.76
2023-03-03T16:06:06.612Z,6.84
2023-03-03T16:08:46.755Z,6.50
2023-03-03T16:11:21.265Z,6.88
2023-03-03T16:14:01.704Z,6.65
2023-03-03T16:16:40.783Z,6.90
2023-03-03T16:19:19.103Z,7.00
2023-03-03T16:22:12.425Z,6.66
2023-03-03T16:24:56.290Z,6.57
2023-03-03T16:27:32.504Z,6.59
2023-03-03T16:30:25.277Z,6.63
2023-03-03T16:32:57.776Z,6.64
2023-03-03T16:35:28.172Z,6.89
2023-03-03T16:38:01.797Z,6.43
2023-03-03T16:40:34.565Z,6.42
2023-03-03T16:43:13.717Z,6.24
2023-03-03T16:45:42.770Z,6.39
2023-03-03T16:48:22.029Z,6.57
2023-03-03T16:51:01.293Z,6.44
2023-03-03T16:53:53.274Z,6.54
2023-03-03T16:56:24.768Z,6.37
2023-03-03T16:59:13.881Z,6.40
2023-03-03T17:01:49.585Z,6.34
2023-03-03T17:04:32.641Z,6.28
2023-03-03T17:07:04.923Z,6.24
2023-03-03T17:10:01.301Z,6.23
2023-03-03T17:12:48.219Z,5.91
2023-03-03T17:15:30.973Z,5.69
2023-03-03T17:18:10.573Z,5.58
2023-03-03T17:20:46.096Z,5.48
2023-03-03T17:23:36.032Z,5.44
2023-03-03T17:26:20.747Z,5.35
2023-03-03T17:28:57.849Z,5.31
2023-03-03T17:31:35.766Z,5.25
2023-03-03T17:34:16.100Z,5.21
2023-03-03T17:37:00.119Z,5.07
2023-03-03T17:39:48.778Z,5.05
2023-03-03T17:42:26.119Z,5.03
2023-03-03T17:45:03.443Z,4.96
2023-03-03T17:47:47.111Z,4.86
2023-03-03T17:50:34.138Z,4.82
2023-03-03T17:53:30.775Z,4.67
2023-03-03T17:56:10.858Z,4.68
2023-03-03T17:59:05.193Z,4.57
2023-03-03T18:01:50.837Z,4.55
2023-03-03T18:05:01.397Z,4.59
2023-03-03T18:07:48.122Z,4.52
2023-03-03T18:10:34.201Z,4.51
2023-03-03T18:13:10.210Z,4.27
2023-03-03T18:16:11.134Z,4.19
2023-03-03T18:18:58.893Z,4.13
2023-03-03T18:21:33.206Z,4.11
2023-03-03T18:24:30.940Z,4.11
2023-03-03T18:27:14.958Z,4.25
2023-03-03T18:30:20.479Z,4.21
2023-03-03T18:33:04.834Z,4.20
2023-03-03T18:35:37.664Z,4.31
2023-03-03T18:38:30.254Z,4.24
2023-03-03T18:41:01.058Z,4.29
2023-03-03T18:44:00.055Z,4.32
2023-03-03T18:46:53.471Z,4.32
2023-03-03T18:49:55.476Z,4.39
2023-03-03T18:52:27.136Z,4.37
2023-03-03T18:55:23.517Z,4.49
2023-03-03T18:58:33.376Z,4.48
2023-03-03T19:01:17.150Z,4.32
2023-03-03T19:04:19.664Z,4.46
2023-03-03T19:07:14.664Z,4.32
2023-03-03T19:09:52.362Z,4.47
2023-03-03T19:12:40.405Z,4.46
2023-03-03T19:15:29.872Z,4.53
2023-03-03T19:17:59.818Z,4.59
2023-03-03T19:20:39.293Z,4.53
2023-03-03T19:23:15.602Z,4.63
2023-03-03T19:25:43.591Z,4.60
2023-03-03T19:28:30.266Z,4.61
2023-03-03T19:30:59.989Z,4.60
2023-03-03T19:33:38.389Z,4.66
2023-03-03T19:36:22.468Z,4.57
2023-03-03T19:39:07.151Z,4.65
2023-03-03T19:41:52.425Z,4.77
2023-03-03T19:44:35.910Z,4.70
2023-03-03T19:47:07.496Z,4.74
2023-03-03T19:49:55.329Z,4.69
2023-03-03T19:52:31.405Z,4.69
2023-03-03T19:58:03.327Z,4.52
2023-03-03T20:00:40.043Z,4.75
2023-03-03T20:03:35.024Z,4.62
2023-03-03T20:06:17.038Z,4.58
2023-03-03T20:08:51.037Z,4.57
2023-03-03T20:11:35.900Z,4.50
2023-03-03T20:14:13.891Z,4.62
2023-03-03T20:16:48.236Z,4.67
2023-03-03T20:19:26.312Z,4.60
2023-03-03T20:22:05.999Z,4.58
2023-03-03T20:24:49.652Z,4.67
2023-03-03T20:27:20.464Z,4.63
2023-03-03T20:30:04.074Z,4.63
2023-03-03T20:32:45.215Z,4.52
2023-03-03T20:35:25.939Z,4.56
2023-03-03T20:38:04.767Z,4.59
2023-03-03T20:40:39.205Z,4.45
2023-03-03T20:43:19.346Z,4.52
2023-03-03T20:46:00.503Z,4.52
2023-03-03T20:48:46.886Z,4.61
2023-03-03T20:51:24.618Z,4.47
2023-03-03T20:53:58.971Z,4.55
2023-03-03T20:56:33.238Z,4.67
2023-03-03T20:59:16.831Z,4.51
2023-03-03T21:01:54.181Z,4.47
2023-03-03T21:04:25.433Z,4.62
2023-03-03T21:06:54.114Z,4.51
2023-03-03T21:09:28.646Z,4.61
2023-03-03T21:12:03.875Z,4.54
2023-03-03T21:14:35.796Z,4.40
2023-03-03T21:17:26.611Z,4.69
2023-03-03T21:19:54.418Z,4.35
2023-03-03T21:22:22.514Z,4.58
2023-03-03T21:24:52.108Z,4.39
2023-03-03T21:27:29.253Z,4.35
2023-03-03T21:30:06.726Z,4.50
2023-03-03T21:32:41.843Z,4.79
2023-03-03T21:35:11.979Z,4.90
2023-03-03T21:37:48.706Z,4.97
2023-03-03T21:40:23.162Z,5.20
2023-03-03T21:42:51.275Z,5.31
2023-03-03T21:45:20.427Z,5.54
2023-03-03T21:47:49.766Z,5.43
2023-03-03T21:50:20.244Z,5.34
2023-03-03T21:52:48.122Z,5.33
2023-03-03T21:55:16.033Z,5.57
2023-03-03T21:57:43.920Z,5.55
2023-03-03T22:00:12.867Z,5.61
2023-03-03T22:02:40.767Z,5.51
2023-03-03T22:05:10.310Z,5.93
2023-03-03T22:07:38.231Z,5.61
2023-03-03T22:10:07.669Z,5.80
2023-03-03T22:12:35.637Z,5.67
2023-03-03T22:15:03.736Z,5.82
2023-03-03T22:17:31.659Z,5.65
2023-03-03T22:19:59.721Z,5.58
2023-03-03T22:22:28.900Z,5.60
2023-03-03T22:24:56.712Z,5.81
2023-03-03T22:27:24.882Z,5.90
2023-03-03T22:29:52.739Z,5.74
2023-03-03T22:32:20.758Z,5.94
2023-03-03T22:34:48.943Z,5.78
2023-03-03T22:37:16.748Z,5.92
2023-03-03T22:39:46.239Z,5.75
2023-03-03T22:42:14.321Z,6.16
2023-03-03T22:44:44.746Z,5.90
2023-03-03T22:47:13.561Z,5.93
2023-03-03T22:49:41.341Z,6.21
2023-03-03T22:52:09.233Z,6.06
2023-03-03T22:54:37.003Z,5.95
2023-03-03T22:57:06.235Z,5.68
2023-03-03T22:59:34.494Z,5.71
2023-03-03T23:02:02.303Z,6.12
2023-03-03T23:04:32.889Z,6.21
2023-03-03T23:07:00.998Z,5.83
2023-03-03T23:09:28.888Z,5.62
2023-03-03T23:11:56.764Z,5.59
2023-03-03T23:14:26.679Z,5.56
2023-03-03T23:16:54.484Z,5.89
2023-03-03T23:19:23.059Z,5.73
2023-03-03T23:21:50.798Z,5.85
2023-03-03T23:24:18.579Z,5.84
2023-03-03T23:26:46.365Z,6.15
2023-03-03T23:29:14.140Z,5.81
2023-03-03T23:31:43.414Z,5.84
2023-03-03T23:34:11.242Z,5.79
2023-03-03T23:36:39.100Z,5.58
2023-03-03T23:39:07.404Z,5.56
2023-03-03T23:41:36.385Z,5.64
2023-03-03T23:44:04.642Z,5.50
2023-03-03T23:46:32.505Z,6.15
2023-03-03T23:49:02.232Z,5.78
2023-03-03T23:51:30.119Z,5.61
2023-03-03T23:53:58.122Z,5.70
2023-03-03T23:56:26.031Z,5.79
2023-03-03T23:58:53.874Z,5.67
